createdAt,value
2022-09-25T00:50:44.594Z,49.07
2022-09-25T00:53:40.807Z,51.03
2022-09-25T00:56:28.499Z,50.72
2022-09-25T00:59:21.455Z,49.95
2022-09-25T01:50:46.501Z,47.13
2022-09-25T01:53:39.264Z,47.15
2022-09-25T01:56:50.287Z,46.70
2022-09-25T01:59:50.630Z,46.92
2022-09-25T02:45:27.130Z,44.17
2022-09-25T02:48:43.716Z,44.10
2022-09-25T02:51:34.048Z,44.85
2022-09-25T02:54:22.181Z,42.77
2022-09-25T02:57:35.422Z,43.15
2022-09-25T03:00:23.857Z,43.53
2022-09-25T03:48:40.905Z,41.88
2022-09-25T03:51:27.674Z,40.72
2022-09-25T03:54:12.939Z,43.15
2022-09-25T03:56:58.267Z,40.37
2022-09-25T03:59:43.211Z,39.88
2022-09-25T04:32:12.382Z,38.70
2022-09-25T04:34:58.404Z,39.65
2022-09-25T04:37:43.614Z,38.53
2022-09-25T04:40:31.272Z,39.40
2022-09-25T04:43:19.697Z,37.53
2022-09-25T04:46:18.315Z,38.92
2022-09-25T04:49:07.096Z,39.08
2022-09-25T04:51:52.503Z,38.38
2022-09-25T04:54:38.264Z,37.22
2022-09-25T04:57:53.466Z,38.53
2022-09-25T05:00:31.518Z,38.67
2022-09-25T05:06:19.985Z,37.20
2022-09-25T05:09:05.157Z,37.75
2022-09-25T05:11:50.084Z,37.30
2022-09-25T05:14:35.419Z,37.60
2022-09-25T05:17:20.958Z,37.70
2022-09-25T05:20:07.056Z,35.97
2022-09-25T05:22:59.136Z,37.75
2022-09-25T05:25:44.390Z,37.47
2022-09-25T05:28:31.581Z,36.63
2022-09-25T05:31:17.381Z,38.10
2022-09-25T05:34:03.083Z,36.88
2022-09-25T05:36:48.334Z,35.83
2022-09-25T05:39:33.247Z,36.13
2022-09-25T05:42:19.346Z,35.70
2022-09-25T05:45:07.551Z,36.20
2022-09-25T05:48:02.010Z,35.67
2022-09-25T05:50:54.599Z,36.58
2022-09-25T05:53:39.995Z,35.97
2022-09-25T05:56:25.217Z,35.50
2022-09-25T05:59:10.173Z,35.05
2022-09-25T06:01:55.616Z,34.63
2022-09-25T06:04:41.084Z,35.33
2022-09-25T06:07:26.050Z,34.70
2022-09-25T06:10:11.464Z,35.08
2022-09-25T06:13:02.575Z,36.08
2022-09-25T06:15:50.661Z,35.10
2022-09-25T06:18:37.121Z,35.45
2022-09-25T06:21:22.560Z,33.97
2022-09-25T06:24:08.465Z,35.35
2022-09-25T06:26:53.677Z,35.05
2022-09-25T06:29:38.640Z,34.70
2022-09-25T06:32:23.407Z,34.55
2022-09-25T06:35:08.680Z,34.10
2022-09-25T06:37:57.617Z,33.95
2022-09-25T06:40:43.584Z,35.08
2022-09-25T06:43:30.256Z,33.55
2022-09-25T06:46:15.121Z,32.58
2022-09-25T06:49:00.815Z,33.33
2022-09-25T06:51:46.756Z,33.92
2022-09-25T06:54:32.011Z,33.88
2022-09-25T06:57:17.047Z,33.13
2022-09-25T07:00:03.999Z,33.30
2022-09-25T07:03:07.895Z,32.53
2022-09-25T07:05:53.223Z,32.03
2022-09-25T07:08:38.067Z,32.88
2022-09-25T07:11:25.795Z,32.45
2022-09-25T07:14:11.011Z,32.88
2022-09-25T07:16:56.138Z,32.37
2022-09-25T07:19:41.083Z,32.13
2022-09-25T07:22:26.164Z,32.08
2022-09-25T07:25:12.603Z,32.42
2022-09-25T07:27:59.046Z,31.98
2022-09-25T07:30:44.819Z,30.87
2022-09-25T07:33:30.281Z,31.98
2022-09-25T07:36:17.218Z,32.70
2022-09-25T07:39:02.922Z,30.73
2022-09-25T07:41:47.961Z,31.00
2022-09-25T07:44:37.951Z,30.83
2022-09-25T07:47:23.538Z,18.40
2022-09-25T07:50:13.271Z,12.70
2022-09-25T07:53:00.621Z,12.07
2022-09-25T07:55:46.618Z,11.45
2022-09-25T07:58:31.593Z,13.53
2022-09-25T08:01:16.484Z,11.48
2022-09-25T08:04:02.047Z,12.32
2022-09-25T08:06:47.296Z,10.05
2022-09-25T08:09:32.700Z,11.65
2022-09-25T08:12:18.525Z,11.87
2022-09-25T08:15:03.601Z,11.10
2022-09-25T08:17:48.974Z,11.75
2022-09-25T08:20:35.999Z,10.95
2022-09-25T08:23:20.830Z,10.13
2022-09-25T08:26:06.705Z,11.83
2022-09-25T08:28:52.229Z,12.65
2022-09-25T08:31:38.023Z,11.30
2022-09-25T08:37:33.914Z,13.18
2022-09-25T08:40:21.251Z,12.03
2022-09-25T08:43:08.211Z,14.48
2022-09-25T08:46:13.580Z,13.23
2022-09-25T08:49:02.594Z,11.25
2022-09-25T08:51:50.114Z,13.45
2022-09-25T08:54:36.246Z,13.77
2022-09-25T08:57:30.362Z,13.20
2022-09-25T09:00:23.709Z,12.88
2022-09-25T09:03:11.187Z,13.77
2022-09-25T09:06:12.088Z,15.18
2022-09-25T09:09:07.524Z,14.13
2022-09-25T09:12:00.479Z,15.48
2022-09-25T09:14:49.438Z,15.95
2022-09-25T09:17:41.757Z,12.77
2022-09-25T09:20:57.819Z,13.07
2022-09-25T09:23:58.896Z,13.40
2022-09-25T09:27:13.605Z,16.60
2022-09-25T09:30:05.967Z,14.45
2022-09-25T09:33:13.626Z,12.50
2022-09-25T09:36:28.083Z,15.57
2022-09-25T09:39:32.131Z,13.53
2022-09-25T09:42:33.913Z,12.93
2022-09-25T09:45:46.465Z,14.73
2022-09-25T09:48:40.742Z,13.18
2022-09-25T09:51:37.403Z,13.30
2022-09-25T09:54:42.331Z,12.10
2022-09-25T09:57:33.831Z,13.77
2022-09-25T10:00:21.440Z,13.88
2022-09-25T10:03:29.177Z,13.77
2022-09-25T10:06:22.397Z,35.92
2022-09-25T10:09:14.069Z,51.97
2022-09-25T10:12:03.719Z,49.88
2022-09-25T10:14:49.015Z,43.67
2022-09-25T10:17:38.125Z,48.28
2022-09-25T10:20:27.611Z,44.00
2022-09-25T10:23:31.920Z,44.63
2022-09-25T10:26:24.535Z,39.00
2022-09-25T10:29:20.913Z,38.97
2022-09-25T10:32:06.490Z,31.38
2022-09-25T10:34:53.272Z,17.33
2022-09-25T10:37:38.622Z,11.80
2022-09-25T10:40:39.036Z,10.00
2022-09-25T10:43:25.427Z,12.25
2022-09-25T10:46:16.023Z,12.13
2022-09-25T10:49:35.539Z,11.27
2022-09-25T10:52:21.247Z,12.47
2022-09-25T10:55:16.430Z,13.18
2022-09-25T10:58:11.199Z,10.40
2022-09-25T11:01:01.670Z,9.32
2022-09-25T11:03:52.499Z,8.02
2022-09-25T11:06:45.174Z,8.73
2022-09-25T11:09:32.471Z,9.60
2022-09-25T11:12:24.238Z,13.32
2022-09-25T11:15:18.149Z,11.25
2022-09-25T11:18:04.075Z,12.27
2022-09-25T11:21:03.333Z,9.97
2022-09-25T11:24:12.456Z,10.25
2022-09-25T11:27:07.941Z,9.27
2022-09-25T11:30:12.264Z,8.60
2022-09-25T11:33:14.013Z,9.43
2022-09-25T11:36:15.313Z,7.73
2022-09-25T11:39:34.115Z,9.40
2022-09-25T11:42:36.341Z,8.82
2022-09-25T11:45:35.664Z,9.23
2022-09-25T11:49:16.644Z,8.30
2022-09-25T11:52:38.029Z,9.53
2022-09-25T11:56:03.204Z,9.65
2022-09-25T11:59:21.804Z,10.20
2022-09-25T12:02:45.565Z,9.35
2022-09-25T12:05:42.827Z,8.57
2022-09-25T12:08:47.804Z,10.00
2022-09-25T12:11:56.516Z,14.85
2022-09-25T12:14:54.712Z,11.10
2022-09-25T12:18:02.899Z,9.73
2022-09-25T12:21:24.556Z,9.90
2022-09-25T12:24:33.293Z,9.90
2022-09-25T12:27:34.960Z,26.60
2022-09-25T12:30:27.018Z,21.17
2022-09-25T12:33:28.686Z,14.95
2022-09-25T12:36:23.176Z,11.07
2022-09-25T12:39:37.606Z,12.93
2022-09-25T12:42:40.184Z,12.77
2022-09-25T12:45:35.549Z,11.20
2022-09-25T12:48:52.182Z,11.65
2022-09-25T12:51:54.676Z,10.88
2022-09-25T12:55:16.616Z,11.33
2022-09-25T12:58:21.301Z,13.88
2022-09-25T13:01:16.070Z,10.85
2022-09-25T13:04:18.855Z,11.57
2022-09-25T13:07:32.979Z,11.95
2022-09-25T13:10:27.425Z,9.80
2022-09-25T13:13:20.922Z,9.38
2022-09-25T13:16:06.692Z,9.48
2022-09-25T13:19:35.150Z,10.85
2022-09-25T13:22:26.567Z,10.68
2022-09-25T13:25:15.421Z,9.80
2022-09-25T13:28:07.545Z,10.82
2022-09-25T13:31:13.388Z,14.07
2022-09-25T13:34:04.006Z,9.73
2022-09-25T13:36:56.363Z,10.20
2022-09-25T13:40:13.574Z,11.70
2022-09-25T13:43:17.663Z,12.38
2022-09-25T13:46:21.740Z,19.50
2022-09-25T13:49:35.812Z,17.98
2022-09-25T13:53:14.211Z,24.83
2022-09-25T13:55:59.532Z,16.17
2022-09-25T13:59:04.056Z,16.23
2022-09-25T14:01:53.944Z,14.60
2022-09-25T14:04:39.731Z,14.63
2022-09-25T14:07:29.828Z,19.17
2022-09-25T14:10:17.475Z,16.93
2022-09-25T14:13:06.898Z,16.33
2022-09-25T14:15:57.090Z,15.80
2022-09-25T14:18:52.648Z,16.30
2022-09-25T14:21:44.217Z,16.70
2022-09-25T14:24:30.969Z,14.83
2022-09-25T14:27:25.344Z,16.23
2022-09-25T14:30:13.929Z,15.30
2022-09-25T14:33:24.587Z,15.65
2022-09-25T14:36:12.416Z,15.57
2022-09-25T14:39:15.879Z,14.33
2022-09-25T14:42:31.021Z,15.18
2022-09-25T14:45:31.439Z,15.52
2022-09-25T14:48:21.660Z,13.82
2022-09-25T14:51:10.991Z,14.05
2022-09-25T14:54:05.796Z,14.33
2022-09-25T14:56:55.854Z,19.00
2022-09-25T14:59:47.471Z,14.05
2022-09-25T15:02:45.350Z,16.45
2022-09-25T15:05:33.623Z,16.98
2022-09-25T15:08:30.259Z,15.50
2022-09-25T15:11:18.321Z,14.00
2022-09-25T15:14:15.198Z,16.35
2022-09-25T15:17:18.960Z,15.77
2022-09-25T15:20:07.907Z,14.02
2022-09-25T15:22:57.645Z,17.17
2022-09-25T15:25:47.475Z,14.85
2022-09-25T15:28:39.936Z,13.98
2022-09-25T15:31:25.574Z,14.73
2022-09-25T15:34:13.397Z,21.05
2022-09-25T15:37:18.681Z,14.17
2022-09-25T15:40:28.665Z,15.77
2022-09-25T15:43:15.990Z,15.52
2022-09-25T15:46:07.395Z,13.52
2022-09-25T15:48:56.624Z,17.48
2022-09-25T15:51:52.835Z,13.00
2022-09-25T15:54:46.652Z,13.20
2022-09-25T15:57:33.674Z,12.07
2022-09-25T16:00:42.036Z,12.50
2022-09-25T16:03:49.590Z,14.05
2022-09-25T16:06:40.742Z,16.67
2022-09-25T16:09:33.994Z,13.65
2022-09-25T16:12:28.291Z,12.77
2022-09-25T16:15:30.007Z,12.68
2022-09-25T16:18:21.561Z,10.73
2022-09-25T16:21:12.926Z,13.80
2022-09-25T16:24:02.721Z,11.95
2022-09-25T16:26:55.295Z,12.35
2022-09-25T16:29:44.294Z,10.02
2022-09-25T16:32:29.878Z,9.52
2022-09-25T16:35:57.493Z,14.53
2022-09-25T16:38:42.666Z,9.45
2022-09-25T16:41:28.085Z,11.38
2022-09-25T16:44:31.750Z,12.38
2022-09-25T16:47:19.869Z,11.02
2022-09-25T16:50:05.271Z,10.57
2022-09-25T16:52:50.823Z,13.35
2022-09-25T16:55:47.505Z,10.65
2022-09-25T16:58:32.647Z,8.88
2022-09-25T17:01:18.382Z,14.52
2022-09-25T17:04:03.928Z,14.27
2022-09-25T17:06:49.313Z,12.05
2022-09-25T17:09:34.614Z,13.15
2022-09-25T17:12:22.830Z,10.20
2022-09-25T17:15:16.056Z,13.07
2022-09-25T17:18:02.505Z,10.70
2022-09-25T17:20:53.734Z,9.95
2022-09-25T17:23:40.095Z,10.65
2022-09-25T17:26:25.184Z,12.38
2022-09-25T17:29:10.940Z,11.32
2022-09-25T17:31:56.657Z,13.37
2022-09-25T17:34:45.523Z,10.32
2022-09-25T17:37:30.788Z,9.82
2022-09-25T17:40:16.219Z,14.50
2022-09-25T17:43:01.430Z,10.20
2022-09-25T17:45:54.535Z,12.60
2022-09-25T17:48:40.060Z,13.38
2022-09-25T17:51:28.348Z,14.82
2022-09-25T17:54:13.507Z,14.95
2022-09-25T17:56:58.732Z,40.20
2022-09-25T17:59:45.264Z,55.10
2022-09-25T18:02:30.390Z,72.18
2022-09-25T18:05:17.761Z,76.53
2022-09-25T18:08:03.203Z,76.45
2022-09-25T18:10:53.187Z,80.40
2022-09-25T18:13:41.649Z,77.27
2022-09-25T18:16:32.204Z,76.95
2022-09-25T18:19:37.662Z,85.50
2022-09-25T18:22:25.413Z,82.47
2022-09-25T18:25:10.685Z,86.57
2022-09-25T18:27:55.967Z,83.50
2022-09-25T18:30:41.210Z,83.57
2022-09-25T18:33:27.074Z,94.55
2022-09-25T18:36:12.294Z,140.20
2022-09-25T18:38:57.313Z,140.00
2022-09-25T18:41:43.907Z,123.47
2022-09-25T18:44:31.096Z,108.13
2022-09-25T18:47:16.203Z,96.72
2022-09-25T18:50:05.044Z,87.93
2022-09-25T18:52:51.007Z,85.47
2022-09-25T18:55:38.026Z,76.83
2022-09-25T18:58:22.944Z,70.40
2022-09-25T19:01:08.033Z,71.43
2022-09-25T19:03:53.319Z,77.38
2022-09-25T19:06:38.516Z,81.55
2022-09-25T19:09:24.906Z,77.20
2022-09-25T19:12:13.133Z,81.25
2022-09-25T19:14:58.323Z,73.75
2022-09-25T19:17:43.878Z,75.05
2022-09-25T19:20:29.044Z,73.20
2022-09-25T19:23:14.103Z,69.30
2022-09-25T19:26:05.023Z,70.85
2022-09-25T19:28:50.240Z,63.58
2022-09-25T19:31:35.340Z,54.78
2022-09-25T19:34:20.534Z,57.65
2022-09-25T19:37:05.814Z,54.23
2022-09-25T19:40:09.994Z,55.58
2022-09-25T19:42:55.768Z,53.08
2022-09-25T19:45:40.730Z,52.88
2022-09-25T19:48:26.084Z,56.40
2022-09-25T19:51:11.596Z,56.63
2022-09-25T19:53:56.829Z,56.53
2022-09-25T19:56:42.656Z,50.97
2022-09-25T19:59:27.917Z,50.10
2022-09-25T20:02:13.052Z,46.17
2022-09-25T20:04:58.260Z,44.50
2022-09-25T20:07:43.331Z,41.22
2022-09-25T20:10:29.597Z,52.05
2022-09-25T20:13:14.678Z,40.45
2022-09-25T20:16:08.538Z,38.25
2022-09-25T20:18:57.561Z,33.40
2022-09-25T20:21:42.770Z,32.38
2022-09-25T20:24:27.586Z,27.13
2022-09-25T20:27:13.024Z,22.95
2022-09-25T20:31:57.912Z,34.72
2022-09-25T20:34:43.013Z,42.70
2022-09-25T20:37:27.970Z,42.25
2022-09-25T20:40:14.909Z,45.38
2022-09-25T20:43:00.292Z,43.30
2022-09-25T20:45:56.131Z,46.80
2022-09-25T20:48:45.454Z,47.58
2022-09-25T20:52:39.932Z,46.65
2022-09-25T20:55:25.123Z,46.03
2022-09-25T20:58:10.562Z,42.45
2022-09-25T21:01:07.541Z,30.30
2022-09-25T21:03:53.639Z,36.80
2022-09-25T21:06:40.643Z,28.70
2022-09-25T21:09:27.611Z,30.45
2022-09-25T21:12:13.002Z,35.30
2022-09-25T21:14:58.036Z,31.37
2022-09-25T21:17:43.951Z,26.98
